createdAt,value
2018-11-10T00:01:14.868Z,100903.41
2018-11-10T00:03:42.986Z,100898.44
2018-11-10T00:06:11.061Z,100898.22
2018-11-10T00:08:39.120Z,100893.34
2018-11-10T00:11:07.228Z,100893.67
2018-11-10T00:13:35.324Z,100885.95
2018-11-10T00:16:03.408Z,100889.28
2018-11-10T00:18:31.509Z,100892.86
2018-11-10T00:20:59.605Z,100882.96
2018-11-10T00:23:27.684Z,100884.42
2018-11-10T00:25:55.772Z,100884.52
2018-11-10T00:28:23.844Z,100880.37
2018-11-10T00:30:51.937Z,100878.16
2018-11-10T00:33:20.006Z,100881.83
2018-11-10T00:35:48.131Z,100905.99
2018-11-10T00:38:16.218Z,100885.69
2018-11-10T00:40:44.332Z,100886.93
2018-11-10T00:43:12.405Z,100879.28
2018-11-10T00:45:40.471Z,100877.34
2018-11-10T00:48:08.579Z,100875.48
2018-11-10T00:50:36.778Z,100882.47
2018-11-10T00:53:04.956Z,100879.00
2018-11-10T00:55:33.050Z,100877.14
2018-11-10T00:58:01.144Z,100868.03
2018-11-10T01:00:29.268Z,100872.73
2018-11-10T01:02:57.352Z,100865.92
2018-11-10T01:05:25.454Z,100864.31
2018-11-10T01:07:53.557Z,100850.11
2018-11-10T01:10:21.670Z,100846.38
2018-11-10T01:12:49.768Z,100848.09
2018-11-10T01:15:17.845Z,100840.94
2018-11-10T01:17:45.971Z,100841.28
2018-11-10T01:20:14.569Z,100834.71
2018-11-10T01:22:42.676Z,100827.07
2018-11-10T01:25:11.451Z,100830.17
2018-11-10T01:27:39.525Z,100818.56
2018-11-10T01:30:09.845Z,100818.23
2018-11-10T01:32:37.912Z,100824.23
2018-11-10T01:35:05.980Z,100823.33
2018-11-10T01:37:34.068Z,100817.89
2018-11-10T01:40:02.126Z,100814.65
2018-11-10T01:42:30.184Z,100811.33
2018-11-10T01:44:58.256Z,100808.34
2018-11-10T01:47:26.333Z,100802.34
2018-11-10T01:49:54.391Z,100808.50
2018-11-10T01:52:22.489Z,100810.30
2018-11-10T01:54:50.549Z,100809.82
2018-11-10T01:57:18.686Z,100810.08
2018-11-10T01:59:46.760Z,100807.63
2018-11-10T02:02:14.849Z,100800.58
2018-11-10T02:04:42.917Z,100787.20
2018-11-10T02:07:11.027Z,100789.47
2018-11-10T02:09:39.096Z,100782.66
2018-11-10T02:12:07.192Z,100781.35
2018-11-10T02:14:35.326Z,100776.51
2018-11-10T02:17:03.381Z,100767.75
2018-11-10T02:19:31.501Z,100772.45
2018-11-10T02:21:59.576Z,100765.33
2018-11-10T02:24:27.668Z,100762.08
2018-11-10T02:26:55.784Z,100759.63
2018-11-10T02:29:23.932Z,100760.52
2018-11-10T02:31:52.048Z,100758.89
2018-11-10T02:34:20.160Z,100759.70
2018-11-10T02:36:48.234Z,100759.45
2018-11-10T02:39:16.372Z,100758.89
2018-11-10T02:41:44.463Z,100753.94
2018-11-10T02:44:12.563Z,100750.31
2018-11-10T02:46:40.645Z,100747.30
2018-11-10T02:49:08.728Z,100747.86
2018-11-10T02:51:36.820Z,100739.58
2018-11-10T02:54:05.249Z,100732.20
2018-11-10T02:56:33.421Z,100722.88
2018-11-10T02:59:01.516Z,100725.53
2018-11-10T03:01:29.591Z,100728.28
2018-11-10T03:03:57.684Z,100715.26
2018-11-10T03:06:25.769Z,100717.20
2018-11-10T03:08:53.848Z,100712.33
2018-11-10T03:11:21.934Z,100711.25
2018-11-10T03:13:50.024Z,100709.17
2018-11-10T03:16:18.098Z,100704.77
2018-11-10T03:18:46.141Z,100696.91
2018-11-10T03:21:14.206Z,100702.85
2018-11-10T03:23:42.267Z,100704.56
2018-11-10T03:26:10.349Z,100698.83
2018-11-10T03:28:38.643Z,100696.85
2018-11-10T03:31:06.990Z,100684.92
2018-11-10T03:33:35.068Z,100678.51
2018-11-10T03:36:03.139Z,100677.61
2018-11-10T03:38:31.214Z,100676.83
2018-11-10T03:40:59.280Z,100677.86
2018-11-10T03:43:27.379Z,100675.92
2018-11-10T03:45:55.467Z,100668.69
2018-11-10T03:48:23.562Z,100668.69
2018-11-10T03:50:51.666Z,100669.39
2018-11-10T03:53:19.718Z,100666.07
2018-11-10T03:55:47.811Z,100671.84
2018-11-10T03:58:15.880Z,100664.35
2018-11-10T04:00:43.952Z,100667.37
2018-11-10T04:03:12.085Z,100656.81
2018-11-10T04:05:40.220Z,100653.18
2018-11-10T04:08:08.312Z,100651.47
2018-11-10T04:10:36.428Z,100649.44
2018-11-10T04:13:04.519Z,100661.73
2018-11-10T04:15:32.624Z,100659.45
2018-11-10T04:18:00.686Z,100655.01
2018-11-10T04:20:28.775Z,100652.13
2018-11-10T04:22:56.873Z,100650.92
2018-11-10T04:25:24.948Z,100644.59
2018-11-10T04:27:53.020Z,100647.26
2018-11-10T04:30:21.100Z,100638.08
2018-11-10T04:32:49.227Z,100630.02
2018-11-10T04:35:17.334Z,100633.25
2018-11-10T04:37:45.449Z,100635.92
2018-11-10T04:40:13.559Z,100635.59
2018-11-10T04:42:41.634Z,100629.16
2018-11-10T04:45:10.853Z,100621.14
2018-11-10T04:47:39.067Z,100619.41
2018-11-10T04:50:08.616Z,100618.84
2018-11-10T04:52:36.680Z,100614.23
2018-11-10T04:55:04.875Z,100601.81
2018-11-10T04:57:32.940Z,100602.63
2018-11-10T05:00:01.019Z,100595.13
2018-11-10T05:02:29.096Z,100597.67
2018-11-10T05:04:57.184Z,100603.75
2018-11-10T05:07:25.263Z,100589.95
2018-11-10T05:09:53.343Z,100585.47
2018-11-10T05:12:21.456Z,100581.49
2018-11-10T05:14:49.549Z,100585.03
2018-11-10T05:17:17.665Z,100586.28
2018-11-10T05:19:45.758Z,100590.68
2018-11-10T05:22:13.855Z,100584.00
2018-11-10T05:24:41.936Z,100580.33
2018-11-10T05:27:10.004Z,100580.81
2018-11-10T05:29:38.073Z,100579.55
2018-11-10T05:32:06.156Z,100583.61
2018-11-10T05:34:34.253Z,100583.17
2018-11-10T05:37:02.333Z,100579.41
2018-11-10T05:39:30.423Z,100571.34
2018-11-10T05:41:58.499Z,100574.36
2018-11-10T05:44:26.561Z,100576.77
2018-11-10T05:46:54.656Z,100566.77
2018-11-10T05:49:22.727Z,100569.88
2018-11-10T05:51:50.795Z,100567.11
2018-11-10T05:54:18.876Z,100569.30
2018-11-10T05:56:46.976Z,100567.23
2018-11-10T05:59:15.093Z,100556.09
2018-11-10T06:01:43.199Z,100559.33
2018-11-10T06:04:11.324Z,100560.23
2018-11-10T06:06:39.445Z,100567.14
2018-11-10T06:09:08.977Z,100564.16
2018-11-10T06:11:36.992Z,100567.70
2018-11-10T06:14:05.106Z,100575.42
2018-11-10T06:16:33.252Z,100583.71
2018-11-10T06:19:01.421Z,100579.82
2018-11-10T06:21:29.508Z,100561.40
2018-11-10T06:23:57.655Z,100571.28
2018-11-10T06:26:25.716Z,100563.56
2018-11-10T06:28:53.832Z,100566.11
2018-11-10T06:31:21.908Z,100566.45
2018-11-10T06:33:50.021Z,100574.58
2018-11-10T06:36:18.104Z,100566.42
2018-11-10T06:38:46.176Z,100557.66
2018-11-10T06:41:14.274Z,100552.23
2018-11-10T06:43:42.373Z,100569.62
2018-11-10T06:46:10.463Z,100582.05
2018-11-10T06:48:38.788Z,100583.89
2018-11-10T06:51:06.876Z,100586.22
2018-11-10T06:53:34.947Z,100568.14
2018-11-10T06:56:03.034Z,100563.44
2018-11-10T06:58:31.134Z,100550.80
2018-11-10T07:00:59.186Z,100541.13
2018-11-10T07:03:27.341Z,100543.98
2018-11-10T07:05:55.431Z,100540.50
2018-11-10T07:08:23.544Z,100538.90
2018-11-10T07:10:51.696Z,100542.48
2018-11-10T07:13:19.800Z,100530.83
2018-11-10T07:15:47.896Z,100546.02
2018-11-10T07:18:16.076Z,100544.33
2018-11-10T07:20:44.187Z,100543.16
2018-11-10T07:23:12.329Z,100543.41
2018-11-10T07:25:40.427Z,100546.40
2018-11-10T07:28:08.532Z,100537.20
2018-11-10T07:30:36.605Z,100525.03
2018-11-10T07:33:04.800Z,100529.39
2018-11-10T07:35:32.883Z,100525.72
2018-11-10T07:38:01.877Z,100525.37
2018-11-10T07:40:30.075Z,100521.48
2018-11-10T07:42:58.211Z,100517.45
2018-11-10T07:45:26.252Z,100518.39
2018-11-10T07:47:54.372Z,100519.33
2018-11-10T07:50:22.468Z,100513.23
2018-11-10T07:52:50.837Z,100512.55
2018-11-10T07:55:18.937Z,100511.87
2018-11-10T07:57:47.037Z,100509.59
2018-11-10T08:00:16.476Z,100512.81
2018-11-10T08:02:44.554Z,100501.06
2018-11-10T08:05:13.207Z,100491.08
2018-11-10T08:07:42.237Z,100493.39
2018-11-10T08:10:10.868Z,100480.51
2018-11-10T08:12:38.944Z,100485.33
2018-11-10T08:15:10.539Z,100483.03
2018-11-10T08:17:39.112Z,100489.59
2018-11-10T08:20:07.469Z,100499.16
2018-11-10T08:22:35.594Z,100506.19
2018-11-10T08:25:03.758Z,100506.91
2018-11-10T08:27:31.842Z,100515.88
2018-11-10T08:29:59.949Z,100506.92
2018-11-10T08:32:28.061Z,100505.65
2018-11-10T08:34:56.127Z,100506.58
2018-11-10T08:37:24.233Z,100503.25
2018-11-10T08:39:52.348Z,100502.23
2018-11-10T08:42:20.681Z,100502.55
2018-11-10T08:44:48.755Z,100492.20
2018-11-10T08:47:16.944Z,100505.57
2018-11-10T08:49:45.001Z,100498.91
2018-11-10T08:52:13.105Z,100492.13
2018-11-10T08:54:41.154Z,100498.34
2018-11-10T08:57:09.257Z,100491.77
2018-11-10T08:59:37.396Z,100493.05
2018-11-10T09:02:07.829Z,100497.41
2018-11-10T09:04:35.920Z,100504.01
2018-11-10T09:07:03.999Z,100499.86
2018-11-10T09:09:32.116Z,100506.88
2018-11-10T09:12:00.209Z,100514.02
2018-11-10T09:14:28.340Z,100515.64
2018-11-10T09:16:56.429Z,100525.44
2018-11-10T09:19:24.528Z,100528.31
2018-11-10T09:21:52.599Z,100525.54
2018-11-10T09:24:20.668Z,100521.85
2018-11-10T09:26:48.762Z,100525.43
2018-11-10T09:29:16.889Z,100533.84
2018-11-10T09:31:44.963Z,100546.43
2018-11-10T09:34:13.031Z,100540.19
2018-11-10T09:36:41.153Z,100534.30
2018-11-10T09:39:09.236Z,100536.14
2018-11-10T09:41:37.764Z,100538.34
2018-11-10T09:44:05.857Z,100537.06
2018-11-10T09:46:33.939Z,100536.03
2018-11-10T09:49:02.016Z,100530.84
2018-11-10T09:51:30.100Z,100535.00
2018-11-10T09:53:58.168Z,100526.91
2018-11-10T09:56:26.260Z,100529.81
2018-11-10T09:58:54.372Z,100524.95
2018-11-10T10:01:22.727Z,100528.88
2018-11-10T10:03:50.672Z,100534.63
2018-11-10T10:06:18.780Z,100537.27
2018-11-10T10:08:46.945Z,100536.79
2018-11-10T10:11:14.956Z,100535.14
2018-11-10T10:13:43.080Z,100531.12
2018-11-10T10:16:11.246Z,100517.37
2018-11-10T10:18:39.285Z,100528.55
2018-11-10T10:21:07.380Z,100521.72
2018-11-10T10:23:35.452Z,100516.15
2018-11-10T10:26:03.536Z,100517.30
2018-11-10T10:28:31.688Z,100522.58
2018-11-10T10:30:59.689Z,100520.59
2018-11-10T10:33:27.769Z,100518.61
2018-11-10T10:35:55.837Z,100505.66
2018-11-10T10:38:23.917Z,100499.91
2018-11-10T10:40:52.260Z,100504.03
2018-11-10T10:43:20.356Z,100499.02
2018-11-10T10:45:48.420Z,100495.64
2018-11-10T10:48:16.508Z,100496.05
2018-11-10T10:50:44.596Z,100484.77
2018-11-10T10:53:12.672Z,100485.66
2018-11-10T10:55:40.764Z,100483.66
2018-11-10T10:58:08.867Z,100478.42
2018-11-10T11:00:42.429Z,100462.88
2018-11-10T11:03:16.090Z,100480.66
2018-11-10T11:05:48.277Z,100477.02
2018-11-10T11:08:16.362Z,100476.97
2018-11-10T11:10:44.476Z,100465.38
2018-11-10T11:13:12.557Z,100465.69
2018-11-10T11:15:40.774Z,100462.05
2018-11-10T11:18:08.731Z,100461.61
2018-11-10T11:20:36.846Z,100469.11
2018-11-10T11:23:05.053Z,100461.22
2018-11-10T11:25:33.137Z,100461.86
2018-11-10T11:28:01.258Z,100465.77
2018-11-10T11:30:29.389Z,100463.50
2018-11-10T11:32:57.461Z,100468.63
2018-11-10T11:35:25.657Z,100455.30
2018-11-10T11:37:53.675Z,100463.57
2018-11-10T11:40:21.776Z,100465.60
2018-11-10T11:42:49.849Z,100467.87
2018-11-10T11:45:17.943Z,100469.43
2018-11-10T11:47:46.020Z,100458.81
2018-11-10T11:50:15.228Z,100466.84
2018-11-10T11:52:44.009Z,100473.89
2018-11-10T11:55:12.700Z,100469.78
2018-11-10T11:57:40.932Z,100471.61
2018-11-10T12:00:12.031Z,100462.32
2018-11-10T12:02:40.608Z,100468.32
2018-11-10T12:05:09.888Z,100461.57
2018-11-10T12:07:37.988Z,100466.35
2018-11-10T12:10:06.976Z,100454.42
2018-11-10T12:12:35.061Z,100460.70
2018-11-10T12:15:03.187Z,100460.87
2018-11-10T12:17:31.264Z,100459.18
2018-11-10T12:19:59.333Z,100457.93
2018-11-10T12:22:27.401Z,100448.72
2018-11-10T12:24:55.488Z,100453.02
2018-11-10T12:27:23.566Z,100461.16
2018-11-10T12:29:51.641Z,100460.34
2018-11-10T12:32:19.713Z,100459.70
2018-11-10T12:34:47.796Z,100459.47
2018-11-10T12:37:15.869Z,100460.21
2018-11-10T12:39:44.057Z,100453.54
2018-11-10T12:42:12.212Z,100463.84
2018-11-10T12:44:40.276Z,100458.59
2018-11-10T12:47:08.405Z,100455.38
2018-11-10T12:49:36.483Z,100464.42
2018-11-10T12:52:04.880Z,100459.71
2018-11-10T12:54:32.947Z,100456.63
2018-11-10T12:57:01.028Z,100458.76
2018-11-10T12:59:29.167Z,100465.84
2018-11-10T13:01:57.272Z,100460.05
2018-11-10T13:04:25.373Z,100452.38
2018-11-10T13:06:53.466Z,100460.03
2018-11-10T13:09:21.521Z,100466.53
2018-11-10T13:11:49.663Z,100458.20
2018-11-10T13:14:17.723Z,100461.11
2018-11-10T13:16:45.767Z,100462.88
2018-11-10T13:19:14.031Z,100465.20
2018-11-10T13:21:42.127Z,100467.33
2018-11-10T13:24:10.315Z,100459.58
2018-11-10T13:26:38.404Z,100458.32
2018-11-10T13:29:06.733Z,100463.06
2018-11-10T13:31:34.828Z,100472.58
2018-11-10T13:34:02.896Z,100470.95
2018-11-10T13:36:31.013Z,100469.80
2018-11-10T13:38:59.142Z,100475.92
2018-11-10T13:41:27.270Z,100466.20
2018-11-10T13:43:55.426Z,100477.23
2018-11-10T13:46:23.496Z,100471.61
2018-11-10T13:48:51.928Z,100470.11
2018-11-10T13:51:20.035Z,100467.83
2018-11-10T13:53:48.112Z,100465.92
2018-11-10T13:56:16.180Z,100469.06
2018-11-10T13:58:44.317Z,100472.34
2018-11-10T14:01:12.477Z,100471.08
2018-11-10T14:03:41.525Z,100471.81
2018-11-10T14:06:09.681Z,100473.41
2018-11-10T14:08:37.785Z,100475.52
2018-11-10T14:11:05.848Z,100473.90
2018-11-10T14:13:33.968Z,100476.02
2018-11-10T14:16:02.043Z,100471.41
2018-11-10T14:18:30.149Z,100483.89
2018-11-10T14:20:58.229Z,100485.28
2018-11-10T14:23:26.297Z,100486.30
2018-11-10T14:25:54.387Z,100480.39
2018-11-10T14:28:22.480Z,100487.69
2018-11-10T14:30:50.717Z,100485.98
2018-11-10T14:33:18.884Z,100485.77
2018-11-10T14:35:47.043Z,100483.20
2018-11-10T14:38:15.151Z,100481.95
2018-11-10T14:40:43.314Z,100480.72
2018-11-10T14:43:11.451Z,100482.67
2018-11-10T14:45:39.544Z,100480.72
2018-11-10T14:48:07.621Z,100484.06
2018-11-10T14:50:35.757Z,100480.27
2018-11-10T14:53:04.595Z,100486.31
2018-11-10T14:55:32.552Z,100486.64
2018-11-10T14:58:00.648Z,100485.41
2018-11-10T15:00:29.476Z,100484.80
2018-11-10T15:02:57.568Z,100484.02
2018-11-10T15:05:25.791Z,100493.28
2018-11-10T15:07:55.596Z,100487.73
2018-11-10T15:10:23.696Z,100494.79
2018-11-10T15:12:51.807Z,100499.89
2018-11-10T15:15:20.162Z,100493.89
2018-11-10T15:17:48.512Z,100501.19
2018-11-10T15:20:17.559Z,100498.53
2018-11-10T15:22:45.633Z,100502.00
2018-11-10T15:25:15.040Z,100499.96
2018-11-10T15:27:43.154Z,100500.32
2018-11-10T15:30:13.926Z,100503.79
2018-11-10T15:32:43.032Z,100503.58
2018-11-10T15:35:13.005Z,100505.66
2018-11-10T15:37:41.898Z,100508.06
2018-11-10T15:40:11.124Z,100504.97
2018-11-10T15:42:39.214Z,100504.72
2018-11-10T15:45:08.303Z,100510.06
2018-11-10T15:47:36.376Z,100510.06
2018-11-10T15:50:05.361Z,100501.95
2018-11-10T15:52:33.459Z,100507.86
2018-11-10T15:55:01.552Z,100505.20
2018-11-10T15:57:29.673Z,100500.11
2018-11-10T15:59:57.766Z,100516.84
2018-11-10T16:02:25.856Z,100505.02
2018-11-10T16:04:53.961Z,100500.73
2018-11-10T16:07:22.060Z,100503.72
2018-11-10T16:09:50.212Z,100510.56
2018-11-10T16:12:18.300Z,100506.89
2018-11-10T16:14:46.403Z,100504.36
2018-11-10T16:17:14.572Z,100500.36
2018-11-10T16:19:42.655Z,100504.06
2018-11-10T16:22:10.716Z,100495.02
2018-11-10T16:24:38.797Z,100498.73
2018-11-10T16:27:06.863Z,100502.67
2018-11-10T16:29:34.962Z,100499.21
2018-11-10T16:32:03.063Z,100502.34
2018-11-10T16:34:31.204Z,100499.93
2018-11-10T16:36:59.290Z,100499.48
2018-11-10T16:39:27.422Z,100503.84
2018-11-10T16:41:55.575Z,100504.09
2018-11-10T16:44:23.656Z,100500.27
2018-11-10T16:46:51.884Z,100503.84
2018-11-10T16:49:19.955Z,100507.80
2018-11-10T16:51:48.041Z,100503.64
2018-11-10T16:54:16.116Z,100509.18
2018-11-10T16:56:44.205Z,100499.93
2018-11-10T16:59:12.321Z,100500.72
2018-11-10T17:01:40.405Z,100503.48
2018-11-10T17:04:08.945Z,100505.69
2018-11-10T17:06:37.088Z,100499.93
2018-11-10T17:09:07.771Z,100497.85
2018-11-10T17:11:35.901Z,100500.17
2018-11-10T17:14:05.176Z,100495.20
2018-11-10T17:16:33.290Z,100492.79
2018-11-10T17:19:01.362Z,100492.34
2018-11-10T17:21:29.531Z,100489.78
2018-11-10T17:23:57.605Z,100487.25
2018-11-10T17:26:25.732Z,100481.83
2018-11-10T17:28:53.868Z,100484.39
2018-11-10T17:31:21.979Z,100491.19
2018-11-10T17:33:50.064Z,100484.17
2018-11-10T17:36:18.140Z,100486.37
2018-11-10T17:38:46.274Z,100491.09
2018-11-10T17:41:14.317Z,100490.52
2018-11-10T17:43:42.393Z,100487.19
2018-11-10T17:46:10.476Z,100485.44
2018-11-10T17:48:38.536Z,100484.63
2018-11-10T17:51:06.715Z,100481.97
2018-11-10T17:53:34.885Z,100484.89
2018-11-10T17:56:02.989Z,100486.73
2018-11-10T17:58:31.060Z,100477.24
2018-11-10T18:00:59.164Z,100477.13
2018-11-10T18:03:27.345Z,100472.73
2018-11-10T18:05:55.472Z,100473.17
2018-11-10T18:08:23.920Z,100477.34
2018-11-10T18:10:52.009Z,100465.68
2018-11-10T18:13:20.431Z,100466.16
2018-11-10T18:15:51.985Z,100470.31
2018-11-10T18:18:20.400Z,100465.13
2018-11-10T18:20:48.538Z,100467.09
2018-11-10T18:23:16.659Z,100465.50
2018-11-10T18:25:44.740Z,100466.28
2018-11-10T18:28:12.888Z,100455.47
2018-11-10T18:30:40.968Z,100457.52
2018-11-10T18:33:09.068Z,100459.27
2018-11-10T18:35:37.152Z,100451.67
2018-11-10T18:38:05.301Z,100459.53
2018-11-10T18:40:33.405Z,100461.25
2018-11-10T18:43:01.500Z,100455.70
2018-11-10T18:45:29.616Z,100461.70
2018-11-10T18:47:57.716Z,100461.70
2018-11-10T18:50:25.805Z,100460.77
2018-11-10T18:52:53.935Z,100456.61
2018-11-10T18:55:22.017Z,100453.98
2018-11-10T18:57:50.127Z,100455.70
2018-11-10T19:00:18.268Z,100458.47
2018-11-10T19:02:46.375Z,100460.01
2018-11-10T19:05:15.780Z,100467.27
2018-11-10T19:07:43.883Z,100456.18
2018-11-10T19:10:13.385Z,100459.88
2018-11-10T19:12:41.942Z,100466.81
2018-11-10T19:15:13.299Z,100461.72
2018-11-10T19:17:41.466Z,100463.92
2018-11-10T19:20:10.142Z,100464.73
2018-11-10T19:22:38.287Z,100463.92
2018-11-10T19:25:07.406Z,100460.79
2018-11-10T19:27:35.505Z,100446.25
2018-11-10T19:30:03.627Z,100447.63
2018-11-10T19:32:31.727Z,100434.14
2018-11-10T19:34:59.825Z,100437.58
2018-11-10T19:37:27.940Z,100433.42
2018-11-10T19:39:56.065Z,100442.55
2018-11-10T19:42:24.135Z,100445.89
2018-11-10T19:44:52.212Z,100440.59
2018-11-10T19:47:20.289Z,100445.53
2018-11-10T19:49:48.733Z,100450.73
2018-11-10T19:52:17.165Z,100454.75
2018-11-10T19:54:45.174Z,100459.59
2018-11-10T19:57:13.240Z,100466.97
2018-11-10T19:59:41.325Z,100460.14
2018-11-10T20:02:09.455Z,100460.02
2018-11-10T20:04:37.529Z,100459.08
2018-11-10T20:07:05.616Z,100462.52
2018-11-10T20:09:33.711Z,100456.86
2018-11-10T20:12:01.773Z,100460.89
2018-11-10T20:14:29.845Z,100466.88
2018-11-10T20:16:57.940Z,100452.22
2018-11-10T20:19:26.085Z,100444.95
2018-11-10T20:21:54.112Z,100450.95
2018-11-10T20:24:22.201Z,100458.90
2018-11-10T20:26:50.285Z,100457.39
2018-11-10T20:29:18.387Z,100461.19
2018-11-10T20:31:46.868Z,100467.21
2018-11-10T20:34:16.639Z,100464.89
2018-11-10T20:36:44.748Z,100465.34
2018-11-10T20:39:12.813Z,100464.41
2018-11-10T20:41:40.867Z,100465.42
2018-11-10T20:44:09.359Z,100461.14
2018-11-10T20:46:38.273Z,100473.50
2018-11-10T20:49:06.359Z,100473.70
2018-11-10T20:51:34.456Z,100458.91
2018-11-10T20:54:02.962Z,100461.92
2018-11-10T20:56:31.024Z,100462.12
2018-11-10T20:58:59.088Z,100462.81
2018-11-10T21:01:27.211Z,100465.71
2018-11-10T21:03:55.344Z,100458.66
2018-11-10T21:06:23.476Z,100455.52
2018-11-10T21:08:51.648Z,100455.39
2018-11-10T21:11:19.752Z,100448.30
2018-11-10T21:13:47.843Z,100444.02
2018-11-10T21:16:15.920Z,100440.30
2018-11-10T21:18:44.000Z,100445.94
2018-11-10T21:21:12.100Z,100447.77
2018-11-10T21:23:40.191Z,100455.15
2018-11-10T21:26:08.316Z,100459.31
2018-11-10T21:28:36.460Z,100458.97
2018-11-10T21:31:04.565Z,100456.41
2018-11-10T21:33:32.697Z,100456.98
2018-11-10T21:36:00.756Z,100459.42
2018-11-10T21:38:28.848Z,100450.73
2018-11-10T21:40:56.952Z,100451.75
2018-11-10T21:43:25.084Z,100446.20
2018-11-10T21:45:53.124Z,100452.33
2018-11-10T21:48:21.284Z,100454.77
2018-11-10T21:50:49.375Z,100456.60
2018-11-10T21:53:17.463Z,100439.34
2018-11-10T21:55:45.549Z,100431.84
2018-11-10T21:58:13.686Z,100449.66
2018-11-10T22:00:41.753Z,100454.97
2018-11-10T22:03:09.872Z,100457.30
2018-11-10T22:05:37.963Z,100440.45
2018-11-10T22:08:06.043Z,100439.06
2018-11-10T22:10:34.116Z,100440.21
2018-11-10T22:13:02.205Z,100442.33
2018-11-10T22:15:30.280Z,100430.18
2018-11-10T22:17:58.380Z,100443.48
2018-11-10T22:20:26.445Z,100442.09
2018-11-10T22:22:54.619Z,100432.38
2018-11-10T22:25:22.673Z,100423.48
2018-11-10T22:27:52.289Z,100421.29
2018-11-10T22:30:21.440Z,100429.03
2018-11-10T22:32:50.028Z,100427.65
2018-11-10T22:35:18.165Z,100442.33
2018-11-10T22:37:46.249Z,100443.80
2018-11-10T22:40:15.631Z,100444.37
2018-11-10T22:42:44.069Z,100438.13
2018-11-10T22:45:14.384Z,100443.67
2018-11-10T22:47:42.771Z,100439.72
2018-11-10T22:50:17.440Z,100444.11
2018-11-10T22:52:45.609Z,100455.78
2018-11-10T22:55:13.692Z,100460.16
2018-11-10T22:57:41.933Z,100453.83
2018-11-10T23:00:27.294Z,100449.66
2018-11-10T23:02:56.683Z,100439.51
2018-11-10T23:05:25.191Z,100440.66
2018-11-10T23:07:53.256Z,100436.86
2018-11-10T23:10:21.635Z,100438.25
2018-11-10T23:12:50.669Z,100437.44
2018-11-10T23:15:19.575Z,100434.91
2018-11-10T23:17:47.640Z,100433.52
2018-11-10T23:20:17.083Z,100427.80
2018-11-10T23:22:45.216Z,100421.48
2018-11-10T23:25:15.562Z,100433.23
2018-11-10T23:27:43.640Z,100432.41
2018-11-10T23:30:14.300Z,100427.91
2018-11-10T23:32:42.434Z,100433.09
2018-11-10T23:35:11.318Z,100424.98
2018-11-10T23:37:39.651Z,100417.34
2018-11-10T23:40:09.616Z,100426.92
2018-11-10T23:42:37.764Z,100420.19
2018-11-10T23:45:06.691Z,100425.98
2018-11-10T23:47:36.548Z,100427.81
2018-11-10T23:50:04.965Z,100420.63
2018-11-10T23:52:33.037Z,100428.14
2018-11-10T23:55:01.117Z,100431.16
2018-11-10T23:57:29.240Z,100432.17
2018-11-10T23:59:57.308Z,100432.25
